Terminal Aerodrome Forecast
Issued by NWS

Home | Current Version | Previous Version | Text Only | Print | Product List | Glossary On
Versions: 1 2 3 4 5 6 7 8 9 10 11 12 13 14 15 16
000
FTUS43 KPAH 251700
TAFCGI
TAF
KCGI 251739Z 2518/2618 12004KT P6SM FEW045 SCT250
     FM260600 00000KT 2SM BR FEW250
     FM260900 00000KT 1/2SM FG FEW250
     FM261300 VRB03KT P6SM SKC=

USA.gov is the U.S. government's official web portal to all federal, state and local government web resources and services.